sensor_id;sensor_type;location;lat;lon;timestamp;P1;durP1;ratioP1;P2;durP2;ratioP2
9062;SDS011;4567;42.118;24.746;2022-12-18T00:01:56;46.67;;;33.57;;
9062;SDS011;4567;42.118;24.746;2022-12-18T00:04:25;49.60;;;33.83;;
9062;SDS011;4567;42.118;24.746;2022-12-18T00:06:53;48.47;;;33.67;;
9062;SDS011;4567;42.118;24.746;2022-12-18T00:09:20;46.80;;;33.93;;
9062;SDS011;4567;42.118;24.746;2022-12-18T00:11:46;55.23;;;35.97;;
9062;SDS011;4567;42.118;24.746;2022-12-18T00:14:13;59.63;;;37.10;;
9062;SDS011;4567;42.118;24.746;2022-12-18T00:16:42;59.83;;;38.43;;
9062;SDS011;4567;42.118;24.746;2022-12-18T00:19:10;56.07;;;38.53;;
9062;SDS011;4567;42.118;24.746;2022-12-18T00:21:39;59.80;;;39.93;;
9062;SDS011;4567;42.118;24.746;2022-12-18T00:24:07;58.43;;;38.53;;
9062;SDS011;4567;42.118;24.746;2022-12-18T00:26:35;61.03;;;40.77;;
9062;SDS011;4567;42.118;24.746;2022-12-18T00:29:03;57.87;;;38.43;;
9062;SDS011;4567;42.118;24.746;2022-12-18T00:31:30;117.83;;;42.57;;
9062;SDS011;4567;42.118;24.746;2022-12-18T00:33:57;114.27;;;41.97;;
9062;SDS011;4567;42.118;24.746;2022-12-18T00:36:25;62.50;;;40.47;;
9062;SDS011;4567;42.118;24.746;2022-12-18T00:38:54;80.80;;;43.13;;
9062;SDS011;4567;42.118;24.746;2022-12-18T00:41:22;76.97;;;40.10;;
9062;SDS011;4567;42.118;24.746;2022-12-18T00:44:09;58.23;;;38.27;;
9062;SDS011;4567;42.118;24.746;2022-12-18T00:46:37;64.80;;;36.40;;
9062;SDS011;4567;42.118;24.746;2022-12-18T00:49:04;56.40;;;35.50;;
9062;SDS011;4567;42.118;24.746;2022-12-18T00:51:31;60.10;;;35.07;;
9062;SDS011;4567;42.118;24.746;2022-12-18T00:53:59;50.73;;;33.37;;
9062;SDS011;4567;42.118;24.746;2022-12-18T00:56:26;80.03;;;33.33;;
9062;SDS011;4567;42.118;24.746;2022-12-18T00:58:52;56.93;;;32.00;;
9062;SDS011;4567;42.118;24.746;2022-12-18T01:01:19;68.57;;;32.03;;
9062;SDS011;4567;42.118;24.746;2022-12-18T01:03:46;81.87;;;31.70;;
9062;SDS011;4567;42.118;24.746;2022-12-18T01:06:13;40.17;;;30.80;;
9062;SDS011;4567;42.118;24.746;2022-12-18T01:08:41;41.57;;;31.27;;
9062;SDS011;4567;42.118;24.746;2022-12-18T01:11:10;46.80;;;30.37;;
9062;SDS011;4567;42.118;24.746;2022-12-18T01:13:37;136.30;;;32.53;;
9062;SDS011;4567;42.118;24.746;2022-12-18T01:16:04;66.17;;;30.77;;
9062;SDS011;4567;42.118;24.746;2022-12-18T01:18:31;59.87;;;30.57;;
9062;SDS011;4567;42.118;24.746;2022-12-18T01:20:58;137.83;;;32.50;;
9062;SDS011;4567;42.118;24.746;2022-12-18T01:23:25;41.67;;;30.47;;
9062;SDS011;4567;42.118;24.746;2022-12-18T01:25:51;72.53;;;31.93;;
9062;SDS011;4567;42.118;24.746;2022-12-18T01:28:19;47.83;;;31.97;;
9062;SDS011;4567;42.118;24.746;2022-12-18T01:30:46;41.83;;;30.60;;
9062;SDS011;4567;42.118;24.746;2022-12-18T01:33:13;41.83;;;31.40;;
9062;SDS011;4567;42.118;24.746;2022-12-18T01:35:40;41.93;;;31.43;;
9062;SDS011;4567;42.118;24.746;2022-12-18T01:38:07;42.03;;;31.27;;
9062;SDS011;4567;42.118;24.746;2022-12-18T01:40:34;42.00;;;30.67;;
9062;SDS011;4567;42.118;24.746;2022-12-18T01:43:01;37.53;;;29.60;;
9062;SDS011;4567;42.118;24.746;2022-12-18T01:45:30;39.90;;;29.43;;
9062;SDS011;4567;42.118;24.746;2022-12-18T01:47:58;44.83;;;31.90;;
9062;SDS011;4567;42.118;24.746;2022-12-18T01:50:28;42.87;;;31.10;;
9062;SDS011;4567;42.118;24.746;2022-12-18T01:52:58;45.30;;;32.77;;
9062;SDS011;4567;42.118;24.746;2022-12-18T01:55:29;39.27;;;28.53;;
9062;SDS011;4567;42.118;24.746;2022-12-18T01:58:01;36.47;;;26.73;;
9062;SDS011;4567;42.118;24.746;2022-12-18T02:00:29;35.83;;;25.27;;
9062;SDS011;4567;42.118;24.746;2022-12-18T02:02:56;34.00;;;24.63;;
9062;SDS011;4567;42.118;24.746;2022-12-18T02:05:27;31.40;;;23.27;;
9062;SDS011;4567;42.118;24.746;2022-12-18T02:08:07;28.90;;;22.43;;
9062;SDS011;4567;42.118;24.746;2022-12-18T02:10:41;28.13;;;22.60;;
9062;SDS011;4567;42.118;24.746;2022-12-18T02:13:14;28.43;;;21.90;;
9062;SDS011;4567;42.118;24.746;2022-12-18T02:15:50;28.23;;;21.53;;
9062;SDS011;4567;42.118;24.746;2022-12-18T02:18:24;29.43;;;22.27;;
9062;SDS011;4567;42.118;24.746;2022-12-18T02:20:55;26.93;;;20.93;;
9062;SDS011;4567;42.118;24.746;2022-12-18T02:23:36;29.30;;;20.90;;
9062;SDS011;4567;42.118;24.746;2022-12-18T02:26:18;26.87;;;20.43;;
9062;SDS011;4567;42.118;24.746;2022-12-18T02:28:49;26.30;;;20.13;;
9062;SDS011;4567;42.118;24.746;2022-12-18T02:31:23;25.33;;;20.63;;
9062;SDS011;4567;42.118;24.746;2022-12-18T02:33:53;25.23;;;20.60;;
9062;SDS011;4567;42.118;24.746;2022-12-18T02:36:22;25.57;;;19.97;;
9062;SDS011;4567;42.118;24.746;2022-12-18T02:38:50;24.53;;;19.67;;
9062;SDS011;4567;42.118;24.746;2022-12-18T02:41:20;27.57;;;20.23;;
9062;SDS011;4567;42.118;24.746;2022-12-18T02:43:47;23.17;;;18.27;;
9062;SDS011;4567;42.118;24.746;2022-12-18T02:46:23;24.30;;;18.90;;
9062;SDS011;4567;42.118;24.746;2022-12-18T02:48:53;23.20;;;18.80;;
9062;SDS011;4567;42.118;24.746;2022-12-18T02:51:27;25.53;;;19.00;;
9062;SDS011;4567;42.118;24.746;2022-12-18T02:54:00;23.93;;;18.73;;
9062;SDS011;4567;42.118;24.746;2022-12-18T02:56:34;24.63;;;18.13;;
9062;SDS011;4567;42.118;24.746;2022-12-18T02:59:06;24.47;;;18.97;;
9062;SDS011;4567;42.118;24.746;2022-12-18T03:01:38;26.97;;;18.63;;
9062;SDS011;4567;42.118;24.746;2022-12-18T03:04:11;23.43;;;19.33;;
9062;SDS011;4567;42.118;24.746;2022-12-18T03:06:43;25.43;;;19.57;;
9062;SDS011;4567;42.118;24.746;2022-12-18T03:09:14;26.97;;;20.10;;
9062;SDS011;4567;42.118;24.746;2022-12-18T03:11:47;25.77;;;19.23;;
9062;SDS011;4567;42.118;24.746;2022-12-18T03:14:39;25.73;;;19.60;;
9062;SDS011;4567;42.118;24.746;2022-12-18T03:17:09;26.13;;;19.83;;
9062;SDS011;4567;42.118;24.746;2022-12-18T03:19:39;25.40;;;19.30;;
9062;SDS011;4567;42.118;24.746;2022-12-18T03:22:10;26.63;;;19.43;;
9062;SDS011;4567;42.118;24.746;2022-12-18T03:24:37;26.03;;;19.57;;
9062;SDS011;4567;42.118;24.746;2022-12-18T03:27:10;26.03;;;19.83;;
9062;SDS011;4567;42.118;24.746;2022-12-18T03:29:40;25.70;;;19.67;;
9062;SDS011;4567;42.118;24.746;2022-12-18T03:32:11;25.83;;;19.87;;
9062;SDS011;4567;42.118;24.746;2022-12-18T03:34:42;26.13;;;19.93;;
9062;SDS011;4567;42.118;24.746;2022-12-18T03:37:13;25.03;;;19.30;;
9062;SDS011;4567;42.118;24.746;2022-12-18T03:39:39;27.20;;;19.90;;
9062;SDS011;4567;42.118;24.746;2022-12-18T03:42:08;24.43;;;20.03;;
9062;SDS011;4567;42.118;24.746;2022-12-18T03:44:39;26.40;;;19.93;;
9062;SDS011;4567;42.118;24.746;2022-12-18T03:47:13;23.43;;;18.80;;
9062;SDS011;4567;42.118;24.746;2022-12-18T03:49:45;23.50;;;19.13;;
9062;SDS011;4567;42.118;24.746;2022-12-18T03:52:17;25.27;;;19.13;;
9062;SDS011;4567;42.118;24.746;2022-12-18T03:54:48;25.03;;;18.57;;
9062;SDS011;4567;42.118;24.746;2022-12-18T03:57:18;24.67;;;18.13;;
9062;SDS011;4567;42.118;24.746;2022-12-18T03:59:49;20.73;;;16.97;;
9062;SDS011;4567;42.118;24.746;2022-12-18T04:02:18;23.07;;;17.03;;
9062;SDS011;4567;42.118;24.746;2022-12-18T04:04:46;19.40;;;15.90;;
9062;SDS011;4567;42.118;24.746;2022-12-18T04:07:14;20.90;;;16.10;;
9062;SDS011;4567;42.118;24.746;2022-12-18T04:09:42;19.20;;;15.73;;
9062;SDS011;4567;42.118;24.746;2022-12-18T04:12:11;20.23;;;15.70;;
9062;SDS011;4567;42.118;24.746;2022-12-18T04:14:39;18.60;;;15.83;;
9062;SDS011;4567;42.118;24.746;2022-12-18T04:17:06;19.43;;;15.53;;
9062;SDS011;4567;42.118;24.746;2022-12-18T04:19:33;19.50;;;15.93;;
9062;SDS011;4567;42.118;24.746;2022-12-18T04:21:59;18.77;;;15.00;;
9062;SDS011;4567;42.118;24.746;2022-12-18T04:24:26;16.73;;;14.03;;
9062;SDS011;4567;42.118;24.746;2022-12-18T04:26:53;14.90;;;13.23;;
9062;SDS011;4567;42.118;24.746;2022-12-18T04:29:19;17.17;;;13.27;;
9062;SDS011;4567;42.118;24.746;2022-12-18T04:31:47;15.03;;;12.50;;
9062;SDS011;4567;42.118;24.746;2022-12-18T04:34:14;14.23;;;12.30;;
9062;SDS011;4567;42.118;24.746;2022-12-18T04:36:41;13.93;;;12.50;;
9062;SDS011;4567;42.118;24.746;2022-12-18T04:39:07;13.03;;;11.60;;
9062;SDS011;4567;42.118;24.746;2022-12-18T04:41:34;12.20;;;9.97;;
9062;SDS011;4567;42.118;24.746;2022-12-18T04:44:01;10.53;;;9.43;;
9062;SDS011;4567;42.118;24.746;2022-12-18T04:46:28;12.53;;;9.30;;
9062;SDS011;4567;42.118;24.746;2022-12-18T04:48:56;10.40;;;9.23;;
9062;SDS011;4567;42.118;24.746;2022-12-18T04:51:22;10.37;;;9.03;;
9062;SDS011;4567;42.118;24.746;2022-12-18T04:53:49;9.73;;;8.33;;
9062;SDS011;4567;42.118;24.746;2022-12-18T04:56:16;9.87;;;8.20;;
9062;SDS011;4567;42.118;24.746;2022-12-18T04:58:43;9.27;;;8.37;;
9062;SDS011;4567;42.118;24.746;2022-12-18T05:01:11;8.53;;;7.70;;
9062;SDS011;4567;42.118;24.746;2022-12-18T05:03:38;8.40;;;7.47;;
9062;SDS011;4567;42.118;24.746;2022-12-18T05:06:07;9.03;;;7.57;;
9062;SDS011;4567;42.118;24.746;2022-12-18T05:08:34;8.50;;;7.60;;
9062;SDS011;4567;42.118;24.746;2022-12-18T05:11:01;9.43;;;7.73;;
9062;SDS011;4567;42.118;24.746;2022-12-18T05:13:30;9.10;;;8.20;;
9062;SDS011;4567;42.118;24.746;2022-12-18T05:15:57;9.20;;;8.30;;
9062;SDS011;4567;42.118;24.746;2022-12-18T05:18:24;12.97;;;8.43;;
9062;SDS011;4567;42.118;24.746;2022-12-18T05:20:52;10.90;;;8.50;;
9062;SDS011;4567;42.118;24.746;2022-12-18T05:23:20;9.77;;;8.77;;
9062;SDS011;4567;42.118;24.746;2022-12-18T05:25:50;14.03;;;9.03;;
9062;SDS011;4567;42.118;24.746;2022-12-18T05:28:18;10.63;;;9.03;;
9062;SDS011;4567;42.118;24.746;2022-12-18T05:30:47;12.17;;;9.50;;
9062;SDS011;4567;42.118;24.746;2022-12-18T05:33:14;13.47;;;9.60;;
9062;SDS011;4567;42.118;24.746;2022-12-18T05:35:41;10.33;;;8.93;;
9062;SDS011;4567;42.118;24.746;2022-12-18T05:38:08;10.40;;;9.17;;
9062;SDS011;4567;42.118;24.746;2022-12-18T05:40:36;9.50;;;8.50;;
9062;SDS011;4567;42.118;24.746;2022-12-18T05:43:02;11.37;;;9.13;;
9062;SDS011;4567;42.118;24.746;2022-12-18T05:45:32;9.80;;;8.13;;
9062;SDS011;4567;42.118;24.746;2022-12-18T05:47:58;10.63;;;8.03;;
9062;SDS011;4567;42.118;24.746;2022-12-18T05:50:25;9.10;;;8.10;;
9062;SDS011;4567;42.118;24.746;2022-12-18T05:52:52;10.03;;;8.37;;
9062;SDS011;4567;42.118;24.746;2022-12-18T05:55:18;11.97;;;8.03;;
9062;SDS011;4567;42.118;24.746;2022-12-18T05:57:46;9.53;;;7.77;;
9062;SDS011;4567;42.118;24.746;2022-12-18T06:00:13;9.13;;;7.30;;
9062;SDS011;4567;42.118;24.746;2022-12-18T06:02:41;8.93;;;7.70;;
9062;SDS011;4567;42.118;24.746;2022-12-18T06:05:08;9.70;;;8.03;;
9062;SDS011;4567;42.118;24.746;2022-12-18T06:07:35;8.87;;;7.97;;
9062;SDS011;4567;42.118;24.746;2022-12-18T06:10:02;8.73;;;7.10;;
9062;SDS011;4567;42.118;24.746;2022-12-18T06:12:29;10.93;;;7.63;;
9062;SDS011;4567;42.118;24.746;2022-12-18T06:14:59;8.80;;;7.90;;
9062;SDS011;4567;42.118;24.746;2022-12-18T06:17:27;10.90;;;8.60;;
9062;SDS011;4567;42.118;24.746;2022-12-18T06:19:55;9.83;;;8.67;;
9062;SDS011;4567;42.118;24.746;2022-12-18T06:22:21;12.67;;;8.40;;
9062;SDS011;4567;42.118;24.746;2022-12-18T06:24:48;9.60;;;8.60;;
9062;SDS011;4567;42.118;24.746;2022-12-18T06:27:15;10.70;;;8.77;;
9062;SDS011;4567;42.118;24.746;2022-12-18T06:29:41;12.23;;;8.93;;
9062;SDS011;4567;42.118;24.746;2022-12-18T06:32:10;10.87;;;8.97;;
9062;SDS011;4567;42.118;24.746;2022-12-18T06:34:36;9.53;;;8.60;;
9062;SDS011;4567;42.118;24.746;2022-12-18T06:37:03;9.50;;;8.37;;
9062;SDS011;4567;42.118;24.746;2022-12-18T06:39:30;13.03;;;8.70;;
9062;SDS011;4567;42.118;24.746;2022-12-18T06:41:57;10.43;;;8.83;;
9062;SDS011;4567;42.118;24.746;2022-12-18T06:44:23;10.70;;;8.50;;
9062;SDS011;4567;42.118;24.746;2022-12-18T06:46:50;9.13;;;8.20;;
9062;SDS011;4567;42.118;24.746;2022-12-18T06:49:18;11.67;;;8.07;;
9062;SDS011;4567;42.118;24.746;2022-12-18T06:51:45;9.67;;;8.63;;
9062;SDS011;4567;42.118;24.746;2022-12-18T06:54:12;12.87;;;7.53;;
9062;SDS011;4567;42.118;24.746;2022-12-18T06:56:39;10.80;;;8.10;;
9062;SDS011;4567;42.118;24.746;2022-12-18T06:59:05;8.73;;;7.83;;
9062;SDS011;4567;42.118;24.746;2022-12-18T07:01:32;9.07;;;7.97;;
9062;SDS011;4567;42.118;24.746;2022-12-18T07:03:59;11.07;;;8.17;;
9062;SDS011;4567;42.118;24.746;2022-12-18T07:06:27;11.40;;;8.07;;
9062;SDS011;4567;42.118;24.746;2022-12-18T07:08:54;10.60;;;8.10;;
9062;SDS011;4567;42.118;24.746;2022-12-18T07:11:21;9.80;;;8.07;;
9062;SDS011;4567;42.118;24.746;2022-12-18T07:13:48;13.13;;;8.47;;
9062;SDS011;4567;42.118;24.746;2022-12-18T07:16:15;11.20;;;7.60;;
9062;SDS011;4567;42.118;24.746;2022-12-18T07:18:43;11.70;;;8.27;;
9062;SDS011;4567;42.118;24.746;2022-12-18T07:21:11;9.53;;;7.63;;
9062;SDS011;4567;42.118;24.746;2022-12-18T07:23:40;10.87;;;8.23;;
9062;SDS011;4567;42.118;24.746;2022-12-18T07:26:08;9.73;;;7.80;;
9062;SDS011;4567;42.118;24.746;2022-12-18T07:28:36;9.97;;;8.17;;
9062;SDS011;4567;42.118;24.746;2022-12-18T07:31:04;9.93;;;7.93;;
9062;SDS011;4567;42.118;24.746;2022-12-18T07:33:32;10.87;;;8.03;;
9062;SDS011;4567;42.118;24.746;2022-12-18T07:35:59;10.23;;;8.30;;
9062;SDS011;4567;42.118;24.746;2022-12-18T07:38:26;14.93;;;11.80;;
9062;SDS011;4567;42.118;24.746;2022-12-18T07:40:54;12.30;;;8.63;;
9062;SDS011;4567;42.118;24.746;2022-12-18T07:43:20;10.17;;;8.20;;
9062;SDS011;4567;42.118;24.746;2022-12-18T07:45:49;10.77;;;8.20;;
9062;SDS011;4567;42.118;24.746;2022-12-18T07:48:16;9.90;;;7.87;;
9062;SDS011;4567;42.118;24.746;2022-12-18T07:50:42;12.00;;;8.03;;
9062;SDS011;4567;42.118;24.746;2022-12-18T07:53:09;11.07;;;8.60;;
9062;SDS011;4567;42.118;24.746;2022-12-18T07:55:35;9.43;;;8.10;;
9062;SDS011;4567;42.118;24.746;2022-12-18T07:58:04;10.43;;;8.53;;
9062;SDS011;4567;42.118;24.746;2022-12-18T08:00:30;11.43;;;8.60;;
9062;SDS011;4567;42.118;24.746;2022-12-18T08:02:57;11.03;;;8.23;;
9062;SDS011;4567;42.118;24.746;2022-12-18T08:05:24;11.43;;;8.20;;
9062;SDS011;4567;42.118;24.746;2022-12-18T08:07:51;8.93;;;7.97;;
9062;SDS011;4567;42.118;24.746;2022-12-18T08:10:18;10.77;;;7.30;;
9062;SDS011;4567;42.118;24.746;2022-12-18T08:12:45;8.77;;;7.87;;
9062;SDS011;4567;42.118;24.746;2022-12-18T08:15:13;9.47;;;7.93;;
9062;SDS011;4567;42.118;24.746;2022-12-18T08:17:39;9.60;;;7.90;;
9062;SDS011;4567;42.118;24.746;2022-12-18T08:20:06;9.60;;;7.57;;
9062;SDS011;4567;42.118;24.746;2022-12-18T08:22:41;9.17;;;7.90;;
9062;SDS011;4567;42.118;24.746;2022-12-18T08:25:08;8.57;;;7.67;;
9062;SDS011;4567;42.118;24.746;2022-12-18T08:27:35;12.73;;;7.90;;
9062;SDS011;4567;42.118;24.746;2022-12-18T08:30:02;9.43;;;7.97;;
9062;SDS011;4567;42.118;24.746;2022-12-18T08:32:31;9.73;;;7.70;;
9062;SDS011;4567;42.118;24.746;2022-12-18T08:34:58;10.30;;;7.80;;
9062;SDS011;4567;42.118;24.746;2022-12-18T08:37:25;9.03;;;8.13;;
9062;SDS011;4567;42.118;24.746;2022-12-18T08:39:52;10.97;;;7.93;;
9062;SDS011;4567;42.118;24.746;2022-12-18T08:42:19;10.83;;;8.13;;
9062;SDS011;4567;42.118;24.746;2022-12-18T08:45:03;10.83;;;7.77;;
9062;SDS011;4567;42.118;24.746;2022-12-18T08:47:31;10.60;;;7.40;;
9062;SDS011;4567;42.118;24.746;2022-12-18T08:49:58;9.47;;;8.03;;
9062;SDS011;4567;42.118;24.746;2022-12-18T08:52:25;7.83;;;7.00;;
9062;SDS011;4567;42.118;24.746;2022-12-18T08:54:51;9.40;;;7.77;;
9062;SDS011;4567;42.118;24.746;2022-12-18T08:57:18;9.07;;;7.40;;
9062;SDS011;4567;42.118;24.746;2022-12-18T08:59:44;10.77;;;8.00;;
9062;SDS011;4567;42.118;24.746;2022-12-18T09:02:11;11.03;;;8.50;;
9062;SDS011;4567;42.118;24.746;2022-12-18T09:04:39;10.03;;;7.83;;
9062;SDS011;4567;42.118;24.746;2022-12-18T09:07:06;10.20;;;7.80;;
9062;SDS011;4567;42.118;24.746;2022-12-18T09:09:33;12.00;;;8.23;;
9062;SDS011;4567;42.118;24.746;2022-12-18T09:11:59;11.17;;;8.40;;
9062;SDS011;4567;42.118;24.746;2022-12-18T09:14:26;12.13;;;7.80;;
9062;SDS011;4567;42.118;24.746;2022-12-18T09:16:53;10.60;;;8.80;;
9062;SDS011;4567;42.118;24.746;2022-12-18T09:19:19;13.30;;;8.00;;
9062;SDS011;4567;42.118;24.746;2022-12-18T09:21:47;11.37;;;8.23;;
9062;SDS011;4567;42.118;24.746;2022-12-18T09:24:14;11.43;;;8.77;;
9062;SDS011;4567;42.118;24.746;2022-12-18T09:26:41;12.07;;;8.13;;
9062;SDS011;4567;42.118;24.746;2022-12-18T09:29:08;12.23;;;7.80;;
9062;SDS011;4567;42.118;24.746;2022-12-18T09:31:35;11.97;;;8.37;;
9062;SDS011;4567;42.118;24.746;2022-12-18T09:34:05;10.93;;;8.00;;
9062;SDS011;4567;42.118;24.746;2022-12-18T09:36:32;11.40;;;7.30;;
9062;SDS011;4567;42.118;24.746;2022-12-18T09:39:01;8.90;;;7.50;;
9062;SDS011;4567;42.118;24.746;2022-12-18T09:41:33;9.90;;;7.63;;
9062;SDS011;4567;42.118;24.746;2022-12-18T09:44:10;9.60;;;7.97;;
9062;SDS011;4567;42.118;24.746;2022-12-18T09:46:43;10.07;;;8.03;;
9062;SDS011;4567;42.118;24.746;2022-12-18T09:49:14;12.23;;;8.57;;
9062;SDS011;4567;42.118;24.746;2022-12-18T09:51:45;9.97;;;7.80;;
9062;SDS011;4567;42.118;24.746;2022-12-18T09:54:18;9.30;;;7.93;;
9062;SDS011;4567;42.118;24.746;2022-12-18T09:56:48;9.30;;;8.27;;
9062;SDS011;4567;42.118;24.746;2022-12-18T09:59:17;10.27;;;8.50;;
9062;SDS011;4567;42.118;24.746;2022-12-18T10:01:48;11.13;;;8.40;;
9062;SDS011;4567;42.118;24.746;2022-12-18T10:04:15;10.80;;;8.33;;
9062;SDS011;4567;42.118;24.746;2022-12-18T10:06:43;8.50;;;7.60;;
9062;SDS011;4567;42.118;24.746;2022-12-18T10:09:17;9.43;;;7.30;;
9062;SDS011;4567;42.118;24.746;2022-12-18T10:11:53;11.10;;;7.90;;
9062;SDS011;4567;42.118;24.746;2022-12-18T10:14:27;10.47;;;8.17;;
9062;SDS011;4567;42.118;24.746;2022-12-18T10:17:00;9.60;;;7.40;;
9062;SDS011;4567;42.118;24.746;2022-12-18T10:19:40;10.30;;;8.00;;
9062;SDS011;4567;42.118;24.746;2022-12-18T10:22:18;9.97;;;7.60;;
9062;SDS011;4567;42.118;24.746;2022-12-18T10:24:52;11.67;;;7.80;;
9062;SDS011;4567;42.118;24.746;2022-12-18T10:27:25;9.63;;;8.00;;
9062;SDS011;4567;42.118;24.746;2022-12-18T10:29:53;9.30;;;7.43;;
9062;SDS011;4567;42.118;24.746;2022-12-18T10:32:21;8.20;;;7.33;;
9062;SDS011;4567;42.118;24.746;2022-12-18T10:34:50;10.53;;;7.53;;
9062;SDS011;4567;42.118;24.746;2022-12-18T10:37:21;9.63;;;8.03;;
9062;SDS011;4567;42.118;24.746;2022-12-18T10:40:05;10.60;;;7.90;;
9062;SDS011;4567;42.118;24.746;2022-12-18T10:42:36;9.37;;;7.80;;
9062;SDS011;4567;42.118;24.746;2022-12-18T10:45:05;11.20;;;8.10;;
9062;SDS011;4567;42.118;24.746;2022-12-18T10:47:37;10.97;;;8.27;;
9062;SDS011;4567;42.118;24.746;2022-12-18T10:50:16;12.80;;;8.20;;
9062;SDS011;4567;42.118;24.746;2022-12-18T10:52:52;11.37;;;8.07;;
9062;SDS011;4567;42.118;24.746;2022-12-18T10:55:21;8.70;;;7.43;;
9062;SDS011;4567;42.118;24.746;2022-12-18T10:57:48;10.63;;;8.27;;
9062;SDS011;4567;42.118;24.746;2022-12-18T11:00:22;9.50;;;8.37;;
9062;SDS011;4567;42.118;24.746;2022-12-18T11:02:51;10.93;;;9.20;;
9062;SDS011;4567;42.118;24.746;2022-12-18T11:05:28;14.33;;;9.33;;
9062;SDS011;4567;42.118;24.746;2022-12-18T11:07:56;14.70;;;9.67;;
9062;SDS011;4567;42.118;24.746;2022-12-18T11:10:28;13.60;;;9.70;;
9062;SDS011;4567;42.118;24.746;2022-12-18T11:13:08;16.27;;;11.13;;
9062;SDS011;4567;42.118;24.746;2022-12-18T11:15:37;17.43;;;11.23;;
9062;SDS011;4567;42.118;24.746;2022-12-18T11:18:13;14.80;;;11.03;;
9062;SDS011;4567;42.118;24.746;2022-12-18T11:20:44;15.93;;;11.40;;
9062;SDS011;4567;42.118;24.746;2022-12-18T11:23:18;18.30;;;12.23;;
9062;SDS011;4567;42.118;24.746;2022-12-18T11:25:51;15.40;;;12.20;;
9062;SDS011;4567;42.118;24.746;2022-12-18T11:28:28;16.87;;;12.80;;
9062;SDS011;4567;42.118;24.746;2022-12-18T11:31:12;16.33;;;11.87;;
9062;SDS011;4567;42.118;24.746;2022-12-18T11:33:44;15.07;;;10.83;;
9062;SDS011;4567;42.118;24.746;2022-12-18T11:36:17;15.60;;;11.60;;
9062;SDS011;4567;42.118;24.746;2022-12-18T11:38:46;13.47;;;10.23;;
9062;SDS011;4567;42.118;24.746;2022-12-18T11:41:19;14.33;;;10.93;;
9062;SDS011;4567;42.118;24.746;2022-12-18T11:44:11;14.90;;;11.20;;
9062;SDS011;4567;42.118;24.746;2022-12-18T11:46:43;13.40;;;10.93;;
9062;SDS011;4567;42.118;24.746;2022-12-18T11:49:17;13.87;;;11.37;;
9062;SDS011;4567;42.118;24.746;2022-12-18T11:51:49;15.93;;;11.27;;
9062;SDS011;4567;42.118;24.746;2022-12-18T11:54:19;14.23;;;11.77;;
9062;SDS011;4567;42.118;24.746;2022-12-18T11:56:48;15.00;;;11.63;;
9062;SDS011;4567;42.118;24.746;2022-12-18T11:59:19;12.50;;;10.33;;
9062;SDS011;4567;42.118;24.746;2022-12-18T12:01:58;13.17;;;10.23;;
9062;SDS011;4567;42.118;24.746;2022-12-18T12:04:42;11.00;;;9.80;;
9062;SDS011;4567;42.118;24.746;2022-12-18T12:07:21;13.10;;;10.07;;
9062;SDS011;4567;42.118;24.746;2022-12-18T12:10:01;11.80;;;10.17;;
9062;SDS011;4567;42.118;24.746;2022-12-18T12:12:43;13.27;;;9.87;;
9062;SDS011;4567;42.118;24.746;2022-12-18T12:15:26;14.20;;;10.10;;
9062;SDS011;4567;42.118;24.746;2022-12-18T12:18:01;13.00;;;9.80;;
9062;SDS011;4567;42.118;24.746;2022-12-18T12:20:40;13.13;;;9.90;;
9062;SDS011;4567;42.118;24.746;2022-12-18T12:23:15;12.57;;;9.90;;
9062;SDS011;4567;42.118;24.746;2022-12-18T12:25:53;12.27;;;10.00;;
9062;SDS011;4567;42.118;24.746;2022-12-18T12:28:34;14.37;;;10.33;;
9062;SDS011;4567;42.118;24.746;2022-12-18T12:31:18;12.53;;;9.93;;
9062;SDS011;4567;42.118;24.746;2022-12-18T12:33:59;11.97;;;10.00;;
9062;SDS011;4567;42.118;24.746;2022-12-18T12:36:37;12.70;;;10.07;;
9062;SDS011;4567;42.118;24.746;2022-12-18T12:39:13;11.07;;;9.80;;
9062;SDS011;4567;42.118;24.746;2022-12-18T12:41:44;14.33;;;10.30;;
9062;SDS011;4567;42.118;24.746;2022-12-18T12:44:32;13.43;;;10.23;;
9062;SDS011;4567;42.118;24.746;2022-12-18T12:47:07;17.10;;;10.50;;
9062;SDS011;4567;42.118;24.746;2022-12-18T12:49:48;14.50;;;10.07;;
9062;SDS011;4567;42.118;24.746;2022-12-18T12:52:16;14.20;;;10.47;;
9062;SDS011;4567;42.118;24.746;2022-12-18T12:54:52;14.03;;;11.33;;
9062;SDS011;4567;42.118;24.746;2022-12-18T12:57:23;15.90;;;11.13;;
9062;SDS011;4567;42.118;24.746;2022-12-18T12:59:59;13.03;;;10.93;;
9062;SDS011;4567;42.118;24.746;2022-12-18T13:02:33;15.07;;;11.20;;
9062;SDS011;4567;42.118;24.746;2022-12-18T13:05:04;13.53;;;10.70;;
9062;SDS011;4567;42.118;24.746;2022-12-18T13:07:45;16.23;;;10.90;;
9062;SDS011;4567;42.118;24.746;2022-12-18T13:10:25;14.60;;;11.17;;
9062;SDS011;4567;42.118;24.746;2022-12-18T13:12:59;13.83;;;10.83;;
9062;SDS011;4567;42.118;24.746;2022-12-18T13:15:30;14.17;;;11.30;;
9062;SDS011;4567;42.118;24.746;2022-12-18T13:18:02;15.27;;;11.63;;
9062;SDS011;4567;42.118;24.746;2022-12-18T13:20:32;16.30;;;12.33;;
9062;SDS011;4567;42.118;24.746;2022-12-18T13:23:01;18.93;;;13.63;;
9062;SDS011;4567;42.118;24.746;2022-12-18T13:25:46;19.17;;;14.23;;
9062;SDS011;4567;42.118;24.746;2022-12-18T13:28:13;18.80;;;13.47;;
9062;SDS011;4567;42.118;24.746;2022-12-18T13:36:15;23.87;;;15.30;;
9062;SDS011;4567;42.118;24.746;2022-12-18T13:41:48;28.87;;;18.47;;
9062;SDS011;4567;42.118;24.746;2022-12-18T13:44:22;23.87;;;16.37;;
9062;SDS011;4567;42.118;24.746;2022-12-18T13:46:54;25.83;;;16.03;;
9062;SDS011;4567;42.118;24.746;2022-12-18T13:49:22;19.77;;;14.67;;
9062;SDS011;4567;42.118;24.746;2022-12-18T13:51:51;22.60;;;15.87;;
9062;SDS011;4567;42.118;24.746;2022-12-18T13:54:20;47.50;;;34.53;;
9062;SDS011;4567;42.118;24.746;2022-12-18T13:56:51;26.77;;;18.23;;
9062;SDS011;4567;42.118;24.746;2022-12-18T13:59:18;20.77;;;14.80;;
9062;SDS011;4567;42.118;24.746;2022-12-18T14:01:47;22.67;;;15.10;;
9062;SDS011;4567;42.118;24.746;2022-12-18T14:04:24;24.07;;;15.30;;
9062;SDS011;4567;42.118;24.746;2022-12-18T14:06:53;21.70;;;15.67;;
9062;SDS011;4567;42.118;24.746;2022-12-18T14:09:24;20.03;;;15.43;;
9062;SDS011;4567;42.118;24.746;2022-12-18T14:11:53;24.30;;;15.97;;
9062;SDS011;4567;42.118;24.746;2022-12-18T14:14:43;23.40;;;15.00;;
9062;SDS011;4567;42.118;24.746;2022-12-18T14:17:12;22.53;;;14.83;;
9062;SDS011;4567;42.118;24.746;2022-12-18T14:19:45;19.13;;;14.43;;
9062;SDS011;4567;42.118;24.746;2022-12-18T14:22:14;20.00;;;14.33;;
9062;SDS011;4567;42.118;24.746;2022-12-18T14:24:43;21.70;;;14.47;;
9062;SDS011;4567;42.118;24.746;2022-12-18T14:27:20;20.17;;;14.20;;
9062;SDS011;4567;42.118;24.746;2022-12-18T14:29:48;17.93;;;13.30;;
9062;SDS011;4567;42.118;24.746;2022-12-18T14:32:16;20.27;;;14.33;;
9062;SDS011;4567;42.118;24.746;2022-12-18T14:34:45;18.90;;;13.90;;
9062;SDS011;4567;42.118;24.746;2022-12-18T14:37:13;20.47;;;14.37;;
9062;SDS011;4567;42.118;24.746;2022-12-18T14:39:40;19.67;;;14.00;;
9062;SDS011;4567;42.118;24.746;2022-12-18T14:42:19;19.70;;;14.53;;
9062;SDS011;4567;42.118;24.746;2022-12-18T14:44:45;22.03;;;14.17;;
9062;SDS011;4567;42.118;24.746;2022-12-18T14:47:13;20.57;;;14.50;;
9062;SDS011;4567;42.118;24.746;2022-12-18T14:49:41;22.30;;;16.33;;
9062;SDS011;4567;42.118;24.746;2022-12-18T14:52:20;22.80;;;15.37;;
9062;SDS011;4567;42.118;24.746;2022-12-18T14:54:52;24.53;;;15.33;;
9062;SDS011;4567;42.118;24.746;2022-12-18T14:57:20;20.90;;;14.10;;
9062;SDS011;4567;42.118;24.746;2022-12-18T14:59:49;20.40;;;14.60;;
9062;SDS011;4567;42.118;24.746;2022-12-18T15:02:18;21.10;;;13.47;;
9062;SDS011;4567;42.118;24.746;2022-12-18T15:04:53;17.57;;;13.30;;
9062;SDS011;4567;42.118;24.746;2022-12-18T15:07:38;18.57;;;13.43;;
9062;SDS011;4567;42.118;24.746;2022-12-18T15:10:09;19.23;;;13.13;;